πŸ“Š DonnΓ©es MΓ©tΓ©o - Bordeaux

Total mesures

14,328

TempΓ©rature moyenne

18.8Β°C

Temp. Min/Max

2.9Β° / 42.4Β°

HumiditΓ© moyenne

64.9%

Pression moyenne

1014.7 hPa
enregistrements
ID Date/Heure Temp (Β°C) HumiditΓ© (%) Pression (hPa) Tendance LuminositΓ© (lux) Situation
13928 29/08/2026 08:15 22.8 66.0 1,016.1 β†’ Stable 50,280 frais-stable
13927 29/08/2026 08:00 22.4 67.0 1,016.1 β†’ Stable 43,800 frais-stable
13926 29/08/2026 07:45 22.0 69.0 1,016.0 β†’ Stable 38,976 frais-stable
13925 29/08/2026 07:15 20.7 75.0 1,016.0 β†’ Stable 29,448 pluvieux-gris (approx.)
13924 29/08/2026 06:45 19.7 79.0 1,016.0 β†’ Stable 18,060 pluvieux-gris (approx.)
13923 29/08/2026 06:30 19.1 81.0 1,016.0 β†’ Stable 13,236 pluvieux-gris (approx.)
13922 29/08/2026 06:15 18.8 82.0 1,016.0 β†’ Stable 8,616 pluvieux-gris (approx.)
13921 29/08/2026 05:45 18.4 83.0 1,015.9 β†’ Stable 1,116 pluvieux-gris (approx.)
13920 29/08/2026 05:15 18.4 81.0 1,015.9 β†’ Stable 0 pluvieux-gris (approx.)
13919 29/08/2026 04:45 18.7 79.0 1,016.0 β†’ Stable 0 pluvieux-gris (approx.)
13918 29/08/2026 04:30 18.7 81.0 1,016.0 β†’ Stable 0 pluvieux-gris (approx.)
13917 29/08/2026 04:15 18.8 80.0 1,016.0 β†’ Stable 0 pluvieux-gris (approx.)
13916 29/08/2026 04:00 19.0 79.0 1,016.0 β†’ Stable 0 pluvieux-gris (approx.)
13915 29/08/2026 03:45 19.2 77.0 1,016.0 β†’ Stable 0 pluvieux-gris (approx.)
13914 29/08/2026 03:15 19.6 75.0 1,016.0 β†’ Stable 0 pluvieux-gris (approx.)
13913 29/08/2026 03:00 19.6 76.0 1,016.0 β†’ Stable 0 pluvieux-gris (approx.)
13912 29/08/2026 02:45 19.7 77.0 1,015.8 β†’ Stable 0 pluvieux-gris (approx.)
13911 29/08/2026 02:30 20.6 79.0 1,015.8 β†’ Stable 0 pluvieux-gris (approx.)
13910 29/08/2026 02:15 20.7 78.0 1,015.8 β†’ Stable 0 pluvieux-gris (approx.)
13909 29/08/2026 01:45 20.8 79.0 1,015.7 β†’ Stable 0 pluvieux-gris (approx.)
13908 29/08/2026 01:30 21.0 80.0 1,015.7 β†’ Stable 0 pluvieux-gris (approx.)
13907 29/08/2026 01:15 21.1 78.0 1,015.7 β†’ Stable 0 pluvieux-gris (approx.)
13906 29/08/2026 01:00 20.9 79.0 1,015.7 β†’ Stable 0 pluvieux-gris (approx.)
13905 29/08/2026 00:45 20.7 78.0 1,015.8 β†’ Stable 0 pluvieux-gris (approx.)
13904 29/08/2026 00:15 21.1 75.0 1,015.8 β†’ Stable 0 pluvieux-gris (approx.)
13903 29/08/2026 00:00 20.9 75.0 1,015.8 β†’ Stable 0 pluvieux-gris (approx.)
13902 28/08/2026 23:45 21.0 75.0 1,015.9 β†’ Stable 0 pluvieux-gris (approx.)
13901 28/08/2026 23:30 21.3 75.0 1,015.9 β†’ Stable 0 pluvieux-gris (approx.)
13900 28/08/2026 23:15 21.3 74.0 1,016.1 β†’ Stable 0 pluvieux-gris (approx.)
13899 28/08/2026 23:00 21.3 73.0 1,016.1 β†’ Stable 0 pluvieux-gris (approx.)
13898 28/08/2026 22:45 21.5 71.0 1,016.3 β†’ Stable 0 pluvieux-gris (approx.)
13897 28/08/2026 22:30 20.4 83.0 1,016.3 β†’ Stable 0 pluvieux-gris (approx.)
13896 28/08/2026 22:15 20.4 83.0 1,016.3 β†’ Stable 0 pluvieux-gris (approx.)
13895 28/08/2026 21:45 20.5 79.0 1,016.4 β†’ Stable 0 pluvieux-gris (approx.)
13894 28/08/2026 21:30 20.1 77.0 1,016.4 β†’ Stable 0 pluvieux-gris (approx.)
13893 28/08/2026 21:15 20.1 77.0 1,016.4 β†’ Stable 0 pluvieux-gris (approx.)
13892 28/08/2026 21:00 20.2 75.0 1,016.4 β†’ Stable 0 pluvieux-gris (approx.)
13891 28/08/2026 20:45 20.4 74.0 1,016.3 β†’ Stable 0 pluvieux-gris (approx.)
13890 28/08/2026 20:30 21.0 64.0 1,016.3 β†’ Stable 0 frais-stable
13889 28/08/2026 20:15 21.2 61.0 1,016.3 β†’ Stable 0 frais-stable
13888 28/08/2026 20:00 21.3 58.0 1,016.3 β†’ Stable 0 frais-stable
13887 28/08/2026 19:45 21.5 55.0 1,015.8 β†’ Stable 0 frais-stable
13886 28/08/2026 19:30 21.8 50.0 1,015.8 β†’ Stable 0 frais-stable
13885 28/08/2026 19:15 22.0 48.0 1,015.8 β†’ Stable 0 frais-stable
13884 28/08/2026 19:00 22.3 47.0 1,015.7 β†’ Stable 0 frais-stable
13883 28/08/2026 18:45 22.6 46.0 1,015.5 β†’ Stable 180 frais-stable
13882 28/08/2026 18:15 23.2 43.0 1,015.5 β†’ Stable 8,520 conditions-neutrales-ou-non-definies
13881 28/08/2026 18:00 23.6 41.0 1,015.5 β†’ Stable 12,228 conditions-neutrales-ou-non-definies
13880 28/08/2026 17:45 23.9 37.0 1,015.4 β†’ Stable 17,412 conditions-neutrales-ou-non-definies
13879 28/08/2026 17:15 24.5 32.0 1,015.4 β†’ Stable 27,684 conditions-neutrales-ou-non-definies
13878 28/08/2026 17:00 24.7 31.0 1,015.4 β†’ Stable 34,440 conditions-neutrales-ou-non-definies
13877 28/08/2026 16:45 24.9 30.0 1,015.5 β†’ Stable 39,720 conditions-neutrales-ou-non-definies
13876 28/08/2026 16:30 25.0 33.0 1,015.5 β†’ Stable 44,724 conditions-neutrales-ou-non-definies
13875 28/08/2026 16:15 25.2 34.0 1,015.5 β†’ Stable 49,728 conditions-neutrales-ou-non-definies
13874 28/08/2026 15:45 25.5 35.0 1,015.3 β†’ Stable 60,180 conditions-neutrales-ou-non-definies
13873 28/08/2026 15:15 25.2 39.0 1,015.3 β†’ Stable 67,596 conditions-neutrales-ou-non-definies
13872 28/08/2026 15:00 25.2 40.0 1,015.3 β†’ Stable 71,388 confortablement-chaud
13871 28/08/2026 14:45 25.2 40.0 1,015.3 β†’ Stable 75,000 confortablement-chaud
13870 28/08/2026 14:30 25.3 39.0 1,015.3 β†’ Stable 76,296 confortablement-chaud (approx.)
13869 28/08/2026 14:15 25.2 38.0 1,015.3 β†’ Stable 79,260 confortablement-chaud (approx.)
13868 28/08/2026 14:00 25.3 38.0 1,015.3 β†’ Stable 85,368 confortablement-chaud (approx.)
13867 28/08/2026 13:45 25.3 38.0 1,015.2 β†’ Stable 87,876 confortablement-chaud (approx.)
13866 28/08/2026 13:15 25.1 40.0 1,015.1 β†’ Stable 90,468 confortablement-chaud
13865 28/08/2026 12:45 25.0 44.0 1,014.8 β†’ Stable 95,376 confortablement-chaud
13864 28/08/2026 12:15 24.0 44.0 1,014.8 β†’ Stable 93,420 confortablement-chaud
13863 28/08/2026 12:00 24.0 45.0 1,014.8 β†’ Stable 77,040 confortablement-chaud
13862 28/08/2026 11:45 23.2 49.0 1,014.7 β†’ Stable 73,152 confortablement-chaud (approx.)
13861 28/08/2026 11:30 22.0 56.0 1,014.7 β†’ Stable 54,348 frais-stable
13860 28/08/2026 11:15 22.9 53.0 1,014.7 β†’ Stable 51,948 frais-stable
13859 28/08/2026 10:45 23.1 51.0 1,014.3 β†’ Stable 66,576 conditions-neutrales-ou-non-definies
13858 28/08/2026 10:15 22.3 56.0 1,014.3 β†’ Stable 66,576 frais-stable
13857 28/08/2026 09:45 21.8 58.0 1,013.8 β†’ Stable 57,588 frais-stable
13856 28/08/2026 09:15 22.0 56.0 1,013.8 β†’ Stable 64,812 frais-stable
13855 28/08/2026 08:45 21.3 62.0 1,013.5 β†’ Stable 51,300 frais-stable
13854 28/08/2026 08:30 20.6 69.0 1,013.5 β†’ Stable 44,820 frais-stable
13853 28/08/2026 08:15 19.6 76.0 1,013.5 β†’ Stable 40,464 pluvieux-gris (approx.)
13852 28/08/2026 08:00 19.1 80.0 1,013.5 β†’ Stable 42,876 pluvieux-gris (approx.)
13851 28/08/2026 07:45 18.8 81.0 1,013.8 β†’ Stable 39,624 pluvieux-gris (approx.)
13850 28/08/2026 07:15 18.0 83.0 1,013.8 β†’ Stable 26,484 pluvieux-gris (approx.)
13849 28/08/2026 06:45 19.1 72.0 1,012.9 β†’ Stable 19,080 pluvieux-gris (approx.)
13848 28/08/2026 06:30 19.0 70.0 1,012.9 β†’ Stable 14,904 pluvieux-gris (approx.)
13847 28/08/2026 06:15 19.0 66.0 1,012.9 β†’ Stable 10,188 frais-stable
13846 28/08/2026 05:45 18.6 70.0 1,012.3 β†’ Stable 1,296 pluvieux-gris (approx.)
13845 28/08/2026 05:30 17.6 80.0 1,012.3 β†’ Stable 0 pluvieux-gris (approx.)
13844 28/08/2026 05:15 17.8 78.0 1,012.3 β†’ Stable 0 pluvieux-gris (approx.)
13843 28/08/2026 05:00 17.8 78.0 1,012.3 β†’ Stable 0 pluvieux-gris (approx.)
13842 28/08/2026 04:45 17.8 80.0 1,011.9 β†’ Stable 0 pluvieux-gris (approx.)
13841 28/08/2026 04:30 18.6 72.0 1,011.9 β†’ Stable 0 pluvieux-gris (approx.)
13840 28/08/2026 04:15 18.7 71.0 1,011.9 β†’ Stable 0 pluvieux-gris (approx.)
13839 28/08/2026 03:45 18.3 82.0 1,011.7 β†’ Stable 0 pluvieux-gris (approx.)
13838 28/08/2026 03:30 18.1 84.0 1,011.7 β†’ Stable 0 pluvieux-gris (approx.)
13837 28/08/2026 03:15 19.1 74.0 1,011.7 β†’ Stable 0 pluvieux-gris (approx.)
13836 28/08/2026 02:45 19.2 70.0 1,011.2 β†’ Stable 0 pluvieux-gris (approx.)
13835 28/08/2026 02:15 19.5 73.0 1,011.2 β†’ Stable 0 pluvieux-gris (approx.)
13834 28/08/2026 01:45 19.6 75.0 1,010.1 β†’ Stable 0 pluvieux-gris (approx.)
13833 28/08/2026 01:30 20.2 72.0 1,010.1 β†’ Stable 0 pluvieux-gris (approx.)
13832 28/08/2026 01:15 20.0 77.0 1,010.0 β†’ Stable 0 pluvieux-gris (approx.)
13831 28/08/2026 01:00 20.5 69.0 1,010.0 β†’ Stable 0 frais-stable
13830 28/08/2026 00:45 20.6 68.0 1,009.7 β†’ Stable 0 frais-stable
13829 28/08/2026 00:30 20.8 66.0 1,009.7 β†’ Stable 0 frais-stable